Time;durP1;ratioP1;P1;durP2;ratioP2;P2;SDS_P1;SDS_P2;PMS_P1;PMS_P2;Temp;Humidity;BMP_temperature;BMP_pressure;BME280_temperature;BME280_humidity;BME280_pressure;Samples;Min_cycle;Max_cycle;Signal;HPM_P1;HPM_P2
2023/01/01 00:02:13;;;;;;;8.70;5.40;;;;;;;10.64;77.88;98413.19;5032008;28;20036;-77
2023/01/01 00:04:39;;;;;;;6.78;5.63;;;;;;;10.97;77.73;98461.63;5031760;28;20033;-76
2023/01/01 00:07:04;;;;;;;7.68;5.13;;;;;;;10.66;77.47;98421.72;5026249;28;20029;-76
2023/01/01 00:12:16;;;;;;;9.27;5.55;;;;;;;10.81;77.58;98451.94;5021871;28;20533;-76
2023/01/01 00:14:43;;;;;;;10.15;6.25;;;;;;;10.83;77.35;98444.50;5009868;28;20435;-77
2023/01/01 00:17:11;;;;;;;18.13;7.10;;;;;;;10.92;77.44;98463.50;5025221;28;20124;-76
2023/01/01 00:19:37;;;;;;;9.82;5.70;;;;;;;10.89;77.04;98459.47;5023345;28;20029;-76
2023/01/01 00:22:02;;;;;;;8.55;6.28;;;;;;;10.78;77.20;98451.66;5021005;28;20021;-75
2023/01/01 00:24:30;;;;;;;11.07;6.38;;;;;;;10.88;76.41;98473.88;5027614;28;20610;-76
2023/01/01 00:26:55;;;;;;;10.40;6.00;;;;;;;10.68;77.16;98441.72;5011634;28;20040;-77
2023/01/01 00:29:28;;;;;;;8.85;5.38;;;;;;;10.92;76.98;98469.63;5008044;28;20022;-77
2023/01/01 00:31:56;;;;;;;12.85;6.03;;;;;;;10.90;77.00;98453.06;4988329;28;20053;-77
2023/01/01 00:34:21;;;;;;;8.43;4.70;;;;;;;10.68;77.34;98430.28;5009074;28;20037;-77
2023/01/01 00:36:57;;;;;;;;;;;;;;;;;;;;;
2023/01/01 00:39:26;;;;;;;10.82;6.32;;;;;;;10.87;76.60;98461.59;5024843;28;20040;-77
2023/01/01 00:41:54;;;;;;;13.68;5.70;;;;;;;10.90;77.46;98474.41;4994794;28;20029;-77
2023/01/01 00:44:23;;;;;;;10.10;4.70;;;;;;;10.92;77.31;98469.63;5024086;28;20033;-77
2023/01/01 00:46:51;;;;;;;7.15;5.53;;;;;;;10.70;77.36;98433.47;5013532;28;20036;-77
2023/01/01 00:49:16;;;;;;;10.70;4.97;;;;;;;10.93;77.38;98460.56;5011941;28;20034;-74
2023/01/01 00:51:42;;;;;;;9.13;4.38;;;;;;;10.88;77.34;98460.53;5028617;28;20436;-77
2023/01/01 00:54:07;;;;;;;14.05;5.07;;;;;;;10.54;77.18;98412.06;5033685;28;20545;-77
2023/01/01 00:56:34;;;;;;;7.72;4.32;;;;;;;10.62;77.92;98423.28;5029288;28;20025;-75
2023/01/01 00:58:59;;;;;;;7.85;5.38;;;;;;;10.61;77.60;98427.03;5047230;28;20045;-77
2023/01/01 01:01:35;;;;;;;6.88;4.80;;;;;;;10.63;77.64;98431.03;5016645;28;20460;-75
2023/01/01 01:04:02;;;;;;;18.20;5.63;;;;;;;10.62;77.12;98447.28;5008771;28;20041;-77
2023/01/01 01:06:28;;;;;;;6.10;4.38;;;;;;;10.57;78.11;98432.88;5024906;28;20025;-76
2023/01/01 01:08:53;;;;;;;14.82;5.75;;;;;;;10.70;77.95;98463.66;5030956;28;20044;-77
2023/01/01 01:11:22;;;;;;;7.53;5.28;;;;;;;10.56;77.42;98435.81;5038488;28;20551;-76
2023/01/01 01:13:50;;;;;;;8.07;5.20;;;;;;;10.38;78.39;98421.00;5011535;28;20033;-76
2023/01/01 01:40:16;;;;;;;10.40;6.10;;;;;;;10.55;78.17;98474.22;5012451;22;20044;-78
2023/01/01 01:42:44;;;;;;;8.43;5.70;;;;;;;10.43;78.81;98471.75;5035321;28;20116;-78
2023/01/01 01:45:10;;;;;;;10.73;6.80;;;;;;;10.52;78.84;98480.88;5046845;28;20033;-77
2023/01/01 01:47:50;;;;;;;8.60;6.43;;;;;;;10.49;78.27;98486.72;5027718;28;20060;-78
2023/01/01 01:50:24;;;;;;;13.20;5.70;;;;;;;10.43;78.36;98468.28;5030900;28;20022;-78
2023/01/01 01:53:09;;;;;;;16.88;7.93;;;;;;;10.48;78.49;98490.44;5031843;28;20052;-78
2023/01/01 01:55:38;;;;;;;11.68;6.00;;;;;;;10.44;78.12;98484.00;5031244;28;20022;-77
2023/01/01 01:58:06;;;;;;;11.75;6.32;;;;;;;10.37;77.57;98478.13;5029145;28;20487;-78
2023/01/01 02:00:31;;;;;;;10.05;5.57;;;;;;;10.40;77.95;98479.44;5015998;28;20029;-78
2023/01/01 02:03:04;;;;;;;11.30;6.43;;;;;;;10.40;77.78;98485.59;5048709;28;20040;-78
2023/01/01 02:05:31;;;;;;;10.65;6.45;;;;;;;10.34;77.75;98473.28;5031466;28;20065;-77
2023/01/01 02:07:58;;;;;;;14.70;6.82;;;;;;;10.37;78.44;98474.63;5011673;28;20033;-78
2023/01/01 02:10:23;;;;;;;17.95;7.60;;;;;;;10.44;78.24;98484.00;5031456;28;20516;-78
2023/01/01 02:12:49;;;;;;;10.90;6.53;;;;;;;10.36;77.87;98462.34;5032079;28;20041;-78
2023/01/01 02:15:14;;;;;;;11.80;6.75;;;;;;;10.37;78.63;98472.78;5031877;28;20029;-78
2023/01/01 02:17:53;;;;;;;12.07;7.80;;;;;;;10.37;78.45;98464.78;5013615;28;20068;-78
2023/01/01 02:20:32;;;;;;;14.95;6.95;;;;;;;10.37;78.37;98475.44;5033385;28;20025;-78
2023/01/01 02:23:28;;;;;;;18.35;9.27;;;;;;;10.39;78.53;98476.00;5048754;28;20056;-78
2023/01/01 02:26:03;;;;;;;10.60;6.22;;;;;;;10.30;78.43;98474.03;5026541;28;20392;-78
2023/01/01 02:29:06;;;;;;;13.75;8.30;;;;;;;10.31;78.27;98489.00;5026585;28;20083;-77
2023/01/01 02:31:39;;;;;;;10.48;7.75;;;;;;;10.32;78.75;98475.41;5025174;28;20086;-77
2023/01/01 02:34:09;;;;;;;17.05;8.80;;;;;;;10.24;78.79;98478.53;5025349;28;20033;-77
2023/01/01 02:36:40;;;;;;;15.48;8.73;;;;;;;10.29;78.65;98473.22;5027695;28;20493;-78
2023/01/01 02:39:07;;;;;;;15.48;7.78;;;;;;;10.33;78.49;98477.00;5033299;28;20038;-78
2023/01/01 02:41:38;;;;;;;14.32;7.88;;;;;;;10.28;77.48;98482.31;4997597;28;20121;-78
2023/01/01 02:44:04;;;;;;;12.77;7.68;;;;;;;10.24;78.28;98491.84;5038206;28;20024;-79
2023/01/01 02:46:31;;;;;;;10.35;5.78;;;;;;;10.17;77.79;98490.47;5030438;28;20026;-78
2023/01/01 02:48:57;;;;;;;14.60;8.40;;;;;;;10.23;78.50;98500.13;5033070;28;20029;-78
2023/01/01 02:51:47;;;;;;;14.15;9.02;;;;;;;10.21;78.82;98511.06;5009163;28;20038;-78
2023/01/01 02:54:16;;;;;;;10.27;7.32;;;;;;;10.20;78.68;98501.44;5029343;28;20109;-78
2023/01/01 02:57:02;;;;;;;9.60;6.70;;;;;;;10.20;78.71;98504.09;5042645;28;20574;-78
2023/01/01 03:02:26;;;;;;;17.25;8.77;;;;;;;10.28;79.07;98508.97;5029004;28;19939;-78
2023/01/01 03:05:17;;;;;;;16.85;9.18;;;;;;;10.29;79.11;98523.09;5028126;28;20440;-78
2023/01/01 03:07:56;;;;;;;16.50;9.25;;;;;;;10.27;78.86;98510.03;5025222;28;20536;-79
2023/01/01 03:10:33;;;;;;;16.92;9.55;;;;;;;10.31;78.83;98519.13;5030121;28;20567;-77
2023/01/01 03:13:33;;;;;;;15.63;8.98;;;;;;;10.33;78.51;98526.91;5025413;28;20552;-77
2023/01/01 03:16:04;;;;;;;19.48;10.43;;;;;;;10.36;78.56;98523.69;5026200;28;20512;-77
2023/01/01 03:19:11;;;;;;;20.45;9.75;;;;;;;10.40;78.87;98536.28;5029689;28;20033;-77
2023/01/01 03:21:39;;;;;;;;;;;;;;;10.39;79.11;98529.34;5008779;28;20033;-77
2023/01/01 03:24:06;;;;;;;19.58;11.20;;;;;;;10.44;79.33;98526.69;5009016;28;19917;-77
2023/01/01 03:26:35;;;;;;;18.48;10.68;;;;;;;10.37;78.62;98515.47;5026141;28;20064;-77
2023/01/01 03:29:03;;;;;;;20.45;11.18;;;;;;;10.32;78.88;98511.94;5022639;28;20041;-77
2023/01/01 03:31:30;;;;;;;20.15;11.25;;;;;;;10.37;78.83;98522.66;5028473;28;20588;-77
2023/01/01 03:34:03;;;;;;;20.88;11.85;;;;;;;10.37;79.00;98531.47;5013401;28;20057;-77
2023/01/01 03:36:39;;;;;;;21.20;12.68;;;;;;;10.38;78.99;98521.56;5022767;28;20489;-77
2023/01/01 03:39:11;;;;;;;18.23;11.07;;;;;;;10.38;78.35;98534.91;5031374;28;20033;-77
2023/01/01 03:41:40;;;;;;;20.02;11.40;;;;;;;10.37;78.76;98530.66;5029450;28;20104;-77
2023/01/01 03:44:31;;;;;;;18.83;11.38;;;;;;;10.39;78.99;98532.03;5032944;28;20108;-78
2023/01/01 03:46:58;;;;;;;21.50;12.55;;;;;;;10.32;79.10;98528.75;5030548;28;20489;-77
2023/01/01 03:49:24;;;;;;;16.45;11.15;;;;;;;10.40;79.23;98538.94;5029406;28;20116;-78
2023/01/01 03:52:34;;;;;;;22.15;13.05;;;;;;;10.40;78.47;98548.81;5030939;28;20433;-76
2023/01/01 03:55:08;;;;;;;20.38;11.27;;;;;;;10.29;78.51;98523.91;5002766;28;20037;-77
2023/01/01 03:57:36;;;;;;;20.02;10.95;;;;;;;10.37;78.11;98531.47;5026130;28;20037;-77
2023/01/01 04:00:18;;;;;;;20.65;11.27;;;;;;;10.42;78.34;98528.00;5030536;28;20032;-78
2023/01/01 04:02:52;;;;;;;19.30;12.30;;;;;;;10.40;79.37;98543.47;5030774;28;20025;-77
2023/01/01 04:05:18;;;;;;;19.48;11.88;;;;;;;10.34;78.53;98521.28;5032736;28;20033;-77
2023/01/01 04:07:45;;;;;;;20.13;11.95;;;;;;;10.25;77.93;98516.66;5028271;28;20040;-77
2023/01/01 04:10:16;;;;;;;19.77;11.50;;;;;;;10.32;78.67;98523.41;5025450;28;20385;-78
2023/01/01 04:12:54;;;;;;;20.73;11.93;;;;;;;10.28;78.82;98513.50;5025943;28;20040;-77
2023/01/01 04:15:23;;;;;;;20.67;12.45;;;;;;;10.31;79.14;98535.13;5024982;28;20025;-77
2023/01/01 04:17:48;;;;;;;19.58;11.25;;;;;;;10.32;78.67;98520.75;5027961;28;20048;-77
2023/01/01 04:20:14;;;;;;;17.40;11.00;;;;;;;10.31;79.04;98529.00;5023843;28;20029;-77
2023/01/01 04:22:40;;;;;;;22.05;10.95;;;;;;;10.33;78.89;98532.22;5025257;28;20085;-77
2023/01/01 04:25:06;;;;;;;18.40;12.32;;;;;;;10.32;78.74;98531.41;5026317;28;20167;-77
2023/01/01 04:27:32;;;;;;;21.98;12.73;;;;;;;10.29;79.01;98531.91;5023079;28;20047;-77
2023/01/01 04:29:57;;;;;;;22.65;11.48;;;;;;;10.25;79.12;98538.00;5022943;28;20396;-78
2023/01/01 04:32:23;;;;;;;20.15;12.13;;;;;;;10.25;79.03;98549.50;5027618;28;20107;-78
2023/01/01 04:34:48;;;;;;;25.02;13.25;;;;;;;10.30;79.51;98546.06;5025924;28;20722;-78
2023/01/01 04:37:14;;;;;;;21.50;12.10;;;;;;;10.27;79.44;98531.38;5028727;28;20038;-77
2023/01/01 04:39:40;;;;;;;25.25;12.27;;;;;;;10.21;79.30;98531.56;5025774;28;20044;-77
2023/01/01 04:42:05;;;;;;;23.42;11.23;;;;;;;10.16;79.14;98537.66;5028127;28;20433;-78
2023/01/01 04:44:30;;;;;;;18.90;12.43;;;;;;;10.15;80.26;98533.41;5026559;28;20123;-79
2023/01/01 04:46:56;;;;;;;24.73;12.40;;;;;;;10.19;78.93;98550.50;4994448;28;20040;-78
2023/01/01 04:49:21;;;;;;;20.35;12.30;;;;;;;10.09;79.98;98549.59;5028057;28;20029;-77
2023/01/01 04:51:47;;;;;;;22.17;11.93;;;;;;;10.04;79.69;98545.00;5027505;28;20034;-77
2023/01/01 04:54:12;;;;;;;20.58;12.32;;;;;;;10.09;79.60;98546.91;5026868;28;20033;-77
2023/01/01 04:56:38;;;;;;;22.00;12.35;;;;;;;10.04;80.42;98555.66;5025586;28;20041;-77
2023/01/01 04:59:03;;;;;;;17.90;12.52;;;;;;;10.14;80.23;98558.44;5027760;28;20193;-77
2023/01/01 05:01:29;;;;;;;26.05;12.40;;;;;;;10.01;80.07;98569.50;5026699;28;20033;-78
2023/01/01 05:03:56;;;;;;;19.40;13.60;;;;;;;10.02;80.34;98578.31;5009408;28;20049;-77
2023/01/01 05:06:22;;;;;;;21.83;12.35;;;;;;;10.08;80.21;98559.44;5026734;28;20033;-78
2023/01/01 05:08:49;;;;;;;17.35;11.63;;;;;;;10.06;80.22;98576.75;5029083;28;20040;-77
2023/01/01 05:11:22;;;;;;;18.77;11.80;;;;;;;10.05;80.32;98578.59;5032422;28;20029;-77
2023/01/01 05:13:50;;;;;;;20.45;12.60;;;;;;;10.09;79.90;98576.25;5029329;28;20033;-77
2023/01/01 05:16:19;;;;;;;21.50;12.73;;;;;;;9.96;80.52;98582.75;5031062;28;20041;-77
2023/01/01 05:18:46;;;;;;;18.85;11.77;;;;;;;10.02;80.63;98589.78;5027122;28;20025;-78
2023/01/01 05:21:14;;;;;;;19.23;11.88;;;;;;;9.99;80.04;98584.94;5029256;28;20477;-77
2023/01/01 05:23:40;;;;;;;22.70;12.00;;;;;;;9.98;80.97;98595.88;5014927;28;20091;-78
2023/01/01 05:26:19;;;;;;;26.70;12.57;;;;;;;9.96;80.39;98587.31;5032495;28;20478;-78
2023/01/01 05:28:46;;;;;;;23.75;12.02;;;;;;;10.05;80.75;98591.94;5025865;28;20033;-78
2023/01/01 05:31:14;;;;;;;20.92;13.00;;;;;;;9.99;80.77;98587.59;5029001;28;20075;-78
2023/01/01 05:33:40;;;;;;;19.80;11.63;;;;;;;10.00;80.73;98593.75;5030741;28;20033;-77
2023/01/01 05:36:08;;;;;;;19.50;13.18;;;;;;;10.02;81.34;98594.31;5026492;28;20025;-77
2023/01/01 05:38:34;;;;;;;17.98;9.95;;;;;;;10.03;80.58;98591.38;5031579;28;20485;-77
2023/01/01 05:41:07;;;;;;;23.85;13.93;;;;;;;10.00;81.19;98585.75;5031437;28;20025;-78
2023/01/01 05:43:33;;;;;;;21.35;12.60;;;;;;;10.00;80.79;98586.56;5033845;28;20064;-78
2023/01/01 05:46:04;;;;;;;20.67;13.25;;;;;;;10.04;81.66;98603.66;5030196;28;20101;-77
2023/01/01 05:48:30;;;;;;;23.02;13.10;;;;;;;10.01;81.13;98590.81;5031025;28;20485;-77
2023/01/01 05:51:08;;;;;;;19.23;12.43;;;;;;;10.09;80.92;98609.03;5027215;28;20034;-77
2023/01/01 05:53:34;;;;;;;20.33;13.18;;;;;;;9.98;81.53;98582.53;5013245;28;20057;-77
2023/01/01 05:56:00;;;;;;;26.92;12.93;;;;;;;10.02;81.30;98595.13;5030604;28;20037;-77
2023/01/01 05:58:27;;;;;;;19.13;11.95;;;;;;;10.07;81.41;98603.16;5030360;28;20025;-78
2023/01/01 06:00:53;;;;;;;19.73;12.68;;;;;;;10.07;81.62;98592.47;5029218;28;20497;-77
2023/01/01 06:03:19;;;;;;;19.45;12.98;;;;;;;10.09;81.34;98605.59;5008940;28;20176;-77
2023/01/01 06:05:44;;;;;;;23.08;11.95;;;;;;;10.10;81.60;98613.31;5029834;28;20119;-77
2023/01/01 06:08:11;;;;;;;19.08;12.00;;;;;;;10.07;81.52;98611.13;5009983;28;20033;-78
2023/01/01 06:10:36;;;;;;;23.27;13.40;;;;;;;10.01;81.41;98606.81;5028083;28;20048;-77
2023/01/01 06:13:02;;;;;;;19.70;12.40;;;;;;;10.01;81.56;98614.00;5030115;28;20038;-77
2023/01/01 06:15:28;;;;;;;19.30;12.15;;;;;;;9.98;81.83;98609.19;5025210;28;20029;-78
2023/01/01 06:17:53;;;;;;;23.73;12.65;;;;;;;10.05;81.82;98615.13;5027404;28;20049;-78
2023/01/01 06:20:19;;;;;;;20.80;13.18;;;;;;;10.07;81.78;98629.03;5026673;28;20033;-78
2023/01/01 06:22:45;;;;;;;21.25;12.43;;;;;;;10.07;82.70;98635.13;5028236;28;20037;-78
2023/01/01 06:25:11;;;;;;;19.38;11.60;;;;;;;10.13;82.02;98636.88;5028549;28;20029;-79
2023/01/01 06:27:37;;;;;;;21.58;10.68;;;;;;;10.09;81.43;98625.03;5029255;28;20455;-77
2023/01/01 06:30:06;;;;;;;20.60;11.82;;;;;;;10.07;81.73;98635.13;5027380;28;20044;-77
2023/01/01 06:32:32;;;;;;;12.80;10.10;;;;;;;10.05;81.71;98629.25;5024797;28;20052;-77
2023/01/01 06:34:58;;;;;;;18.33;11.90;;;;;;;10.05;81.46;98625.78;5029080;28;20113;-78
2023/01/01 06:37:24;;;;;;;20.42;13.95;;;;;;;10.16;81.13;98652.34;5012335;28;20120;-78
2023/01/01 06:39:49;;;;;;;20.80;11.88;;;;;;;10.17;81.11;98651.31;5028959;28;20029;-78
2023/01/01 06:42:14;;;;;;;20.00;12.00;;;;;;;10.09;81.29;98656.25;5032044;28;20038;-78
2023/01/01 06:44:40;;;;;;;19.92;12.02;;;;;;;10.13;81.95;98657.38;5029402;28;20041;-77
2023/01/01 06:47:05;;;;;;;18.25;11.65;;;;;;;10.10;81.88;98665.84;5027075;28;20159;-77
2023/01/01 06:49:31;;;;;;;17.10;12.02;;;;;;;10.11;81.33;98662.16;5024264;28;20032;-78
2023/01/01 06:51:56;;;;;;;19.83;11.45;;;;;;;10.18;80.91;98660.09;5031290;28;20033;-78
2023/01/01 06:54:22;;;;;;;16.60;10.68;;;;;;;10.17;81.37;98675.31;5032452;28;20096;-78
2023/01/01 06:56:48;;;;;;;15.38;10.98;;;;;;;10.11;81.72;98667.50;5029364;28;20409;-78
2023/01/01 06:59:15;;;;;;;18.33;11.50;;;;;;;10.11;81.67;98660.28;5011380;28;20053;-77
2023/01/01 07:01:40;;;;;;;18.23;10.48;;;;;;;10.20;81.97;98680.13;5011195;28;20029;-78
2023/01/01 07:04:09;;;;;;;19.90;11.18;;;;;;;10.18;82.16;98674.22;5027733;28;20036;-77
2023/01/01 07:06:34;;;;;;;23.50;11.07;;;;;;;10.12;81.65;98664.56;5024311;28;20033;-77
2023/01/01 07:09:00;;;;;;;16.75;11.05;;;;;;;10.13;81.83;98671.53;5012211;28;20508;-78
2023/01/01 07:11:26;;;;;;;17.13;9.85;;;;;;;10.10;82.38;98690.66;5011334;28;20033;-77
2023/01/01 07:13:52;;;;;;;18.75;11.45;;;;;;;9.87;82.38;98628.78;5028661;28;20060;-77
2023/01/01 07:16:17;;;;;;;19.02;10.98;;;;;;;10.21;82.51;98673.75;5027395;28;20170;-77
2023/01/01 07:18:43;;;;;;;19.73;10.45;;;;;;;10.20;82.39;98674.78;5025525;28;20033;-77
2023/01/01 07:21:42;;;;;;;17.90;9.93;;;;;;;10.20;82.03;98685.47;5024009;28;20078;-77
2023/01/01 07:24:11;;;;;;;16.35;10.27;;;;;;;10.15;82.46;98696.09;4972877;28;20405;-77
2023/01/01 07:26:37;;;;;;;14.65;9.30;;;;;;;10.21;81.95;98696.94;5029040;28;20021;-77
2023/01/01 07:29:02;;;;;;;15.10;8.40;;;;;;;10.20;82.01;98690.00;5030473;28;20056;-77
2023/01/01 07:31:28;;;;;;;18.80;10.15;;;;;;;10.13;82.33;98697.38;5027235;28;20044;-77
2023/01/01 07:33:53;;;;;;;13.45;8.38;;;;;;;10.22;82.52;98725.22;5011891;28;20040;-78
2023/01/01 07:36:18;;;;;;;18.23;9.18;;;;;;;10.16;82.45;98719.03;5027628;28;20033;-78
2023/01/01 07:38:44;;;;;;;14.75;8.88;;;;;;;10.19;82.02;98725.72;5025987;28;20037;-78
2023/01/01 07:41:09;;;;;;;17.13;9.55;;;;;;;10.25;81.83;98724.72;5025879;28;20091;-78
2023/01/01 07:43:34;;;;;;;15.85;9.77;;;;;;;10.22;82.20;98722.56;5028562;28;20116;-77
2023/01/01 07:46:00;;;;;;;16.75;8.48;;;;;;;10.27;81.57;98718.09;5008058;28;20370;-77
2023/01/01 07:48:26;;;;;;;15.60;8.27;;;;;;;10.24;81.65;98723.91;5026396;28;20103;-78
2023/01/01 07:50:51;;;;;;;14.40;7.97;;;;;;;10.19;82.32;98723.06;5028023;28;20030;-78
2023/01/01 07:53:17;;;;;;;14.05;7.15;;;;;;;10.18;81.85;98734.75;5007977;28;20033;-78
2023/01/01 07:55:44;;;;;;;12.77;8.32;;;;;;;10.31;81.11;98745.88;5009065;28;20053;-77
2023/01/01 07:58:10;;;;;;;12.98;8.52;;;;;;;10.27;81.63;98747.44;5025782;28;20509;-77
2023/01/01 08:00:36;;;;;;;11.80;6.25;;;;;;;10.27;81.35;98750.09;5029562;28;20034;-77
2023/01/01 08:03:01;;;;;;;12.60;7.47;;;;;;;10.26;81.56;98761.84;5027719;28;21713;-77
2023/01/01 08:05:27;;;;;;;13.27;7.75;;;;;;;10.30;81.51;98751.47;5010618;28;20052;-77
2023/01/01 08:07:53;;;;;;;15.15;7.82;;;;;;;10.23;81.46;98769.50;5028878;28;20025;-78
2023/01/01 08:10:20;;;;;;;11.88;7.13;;;;;;;10.29;81.12;98773.84;5037125;28;20025;-78
2023/01/01 08:12:46;;;;;;;15.25;7.85;;;;;;;10.18;81.35;98745.44;5029396;28;20481;-77
2023/01/01 08:15:13;;;;;;;13.10;7.50;;;;;;;10.32;81.25;98768.84;5028154;28;20437;-79
2023/01/01 08:17:39;;;;;;;12.68;6.88;;;;;;;10.36;81.22;98777.94;5025384;28;20033;-78
2023/01/01 08:20:05;;;;;;;11.52;7.22;;;;;;;10.38;81.20;98775.03;5030376;28;20032;-77
2023/01/01 08:22:31;;;;;;;11.65;6.45;;;;;;;10.34;81.25;98772.06;5023975;28;20584;-77
2023/01/01 08:24:56;;;;;;;13.57;7.07;;;;;;;10.41;81.66;98778.03;5032207;28;20029;-78
2023/01/01 08:27:21;;;;;;;14.57;7.15;;;;;;;10.42;80.65;98779.63;5028661;28;20026;-78
2023/01/01 08:29:47;;;;;;;11.90;6.60;;;;;;;10.37;81.27;98782.25;5014700;28;20541;-77
2023/01/01 08:32:12;;;;;;;12.35;7.53;;;;;;;10.44;80.60;98782.06;5010362;28;20037;-79
2023/01/01 08:34:38;;;;;;;10.05;6.30;;;;;;;10.52;80.58;98782.44;5029849;28;20049;-79
2023/01/01 08:37:04;;;;;;;10.10;6.00;;;;;;;10.54;80.37;98777.66;5027892;28;20044;-78
2023/01/01 08:39:30;;;;;;;13.05;6.50;;;;;;;10.54;80.50;98768.81;5031537;28;20017;-77
2023/01/01 08:41:55;;;;;;;13.77;6.70;;;;;;;10.55;80.55;98771.22;5031382;28;20044;-78
2023/01/01 08:44:21;;;;;;;10.98;6.60;;;;;;;10.53;80.39;98757.34;5012550;28;20072;-78
2023/01/01 08:46:46;;;;;;;10.63;6.57;;;;;;;10.44;80.34;98745.50;5029015;28;20368;-79
2023/01/01 08:49:11;;;;;;;10.35;6.40;;;;;;;10.60;80.54;98769.66;5030920;28;20033;-79
2023/01/01 08:51:37;;;;;;;12.00;6.35;;;;;;;10.59;80.59;98768.88;5031904;28;20033;-79
2023/01/01 08:54:03;;;;;;;10.30;6.57;;;;;;;10.65;80.05;98764.41;5031657;28;20048;-78
2023/01/01 08:56:28;;;;;;;11.13;6.45;;;;;;;10.81;79.82;98782.19;5029953;28;20363;-78
2023/01/01 08:58:54;;;;;;;12.25;8.45;;;;;;;10.79;79.94;98785.09;5032751;28;20055;-79
2023/01/01 09:01:20;;;;;;;8.15;6.45;;;;;;;10.74;79.78;98781.59;5028635;28;20045;-77
2023/01/01 09:03:46;;;;;;;10.70;7.35;;;;;;;10.73;80.29;98780.78;5000322;28;20040;-77
2023/01/01 09:06:12;;;;;;;13.18;8.07;;;;;;;10.66;80.72;98790.06;5032004;28;20033;-77
2023/01/01 09:08:37;;;;;;;13.63;8.73;;;;;;;10.73;79.91;98804.81;5032454;28;20122;-77
2023/01/01 09:11:03;;;;;;;12.43;7.90;;;;;;;10.74;80.37;98800.28;5014442;28;20053;-78
2023/01/01 09:13:29;;;;;;;14.57;8.40;;;;;;;10.70;79.88;98817.84;5031667;28;20033;-79
2023/01/01 09:15:55;;;;;;;15.20;7.95;;;;;;;10.70;80.61;98820.53;5030896;28;20071;-78
2023/01/01 09:18:21;;;;;;;14.90;9.27;;;;;;;10.65;80.07;98813.25;5028614;28;20500;-79
2023/01/01 09:20:46;;;;;;;9.18;6.40;;;;;;;10.67;79.74;98810.34;5030463;28;20096;-79
2023/01/01 09:23:12;;;;;;;10.35;5.60;;;;;;;10.72;80.00;98832.56;5027290;28;20032;-78
2023/01/01 09:25:38;;;;;;;15.05;7.35;;;;;;;10.68;79.84;98831.44;5029580;28;20029;-78
2023/01/01 09:28:06;;;;;;;10.60;6.47;;;;;;;10.82;79.69;98851.34;5007882;28;20029;-78
2023/01/01 09:30:32;;;;;;;7.93;6.15;;;;;;;10.85;79.49;98855.41;5028943;28;20045;-79
2023/01/01 09:32:57;;;;;;;6.57;5.20;;;;;;;10.86;80.00;98855.13;5030466;28;20124;-78
2023/01/01 09:35:23;;;;;;;9.70;5.25;;;;;;;10.88;79.21;98854.88;5029316;28;20057;-77
2023/01/01 09:37:48;;;;;;;7.10;5.20;;;;;;;10.83;79.61;98844.16;5029485;28;20124;-77
2023/01/01 09:40:38;;;;;;;8.55;6.30;;;;;;;10.87;80.23;98861.28;4994056;28;20029;-77
2023/01/01 09:43:44;;;;;;;8.10;4.82;;;;;;;10.86;79.41;98868.50;5037982;28;20041;-78
2023/01/01 09:46:10;;;;;;;9.68;5.22;;;;;;;10.81;79.12;98868.41;5039841;28;20116;-78
2023/01/01 09:48:48;;;;;;;15.95;5.47;;;;;;;10.84;79.15;98859.09;5052873;28;20057;-77
2023/01/01 09:51:17;;;;;;;10.52;5.50;;;;;;;10.95;78.80;98842.16;5031518;28;20071;-78
2023/01/01 09:54:06;;;;;;;13.15;5.90;;;;;;;10.82;79.41;98870.06;5032679;28;20098;-77
2023/01/01 09:56:35;;;;;;;6.75;4.10;;;;;;;10.80;79.72;98858.00;5034395;28;20029;-77
2023/01/01 09:59:00;;;;;;;11.93;5.20;;;;;;;10.84;79.07;98853.78;5028132;28;20033;-77
2023/01/01 10:01:47;;;;;;;9.93;4.65;;;;;;;10.90;79.46;98863.47;5014275;28;20120;-77
2023/01/01 10:04:28;;;;;;;7.93;4.55;;;;;;;10.98;78.85;98871.84;5030212;28;22128;-77
2023/01/01 10:07:09;;;;;;;10.65;4.65;;;;;;;11.02;78.63;98885.50;5029128;28;20404;-77
2023/01/01 10:09:49;;;;;;;7.60;4.15;;;;;;;10.94;78.90;98862.69;5032511;28;20031;-78
2023/01/01 10:12:32;;;;;;;7.40;4.40;;;;;;;10.83;78.97;98853.00;5029839;28;20059;-77
2023/01/01 10:15:09;;;;;;;7.78;4.55;;;;;;;10.97;78.95;98850.72;5042061;28;20037;-77
2023/01/01 10:17:43;;;;;;;7.72;4.80;;;;;;;10.90;78.51;98842.91;5031442;28;20025;-77
2023/01/01 10:20:24;;;;;;;9.63;4.55;;;;;;;10.82;79.25;98848.69;5028778;28;20477;-77
2023/01/01 10:23:02;;;;;;;6.57;3.72;;;;;;;10.81;79.21;98859.63;5027081;28;20040;-77
2023/01/01 10:25:31;;;;;;;14.05;5.20;;;;;;;10.92;79.02;98874.72;5029490;28;20032;-79
2023/01/01 10:28:12;;;;;;;7.22;4.05;;;;;;;10.86;79.23;98871.16;5027930;28;20444;-78
2023/01/01 10:30:40;;;;;;;5.90;4.10;;;;;;;10.86;79.75;98881.84;5030520;28;20047;-79
2023/01/01 10:33:12;;;;;;;6.38;5.22;;;;;;;10.91;79.15;98887.25;5045591;28;20043;-78
2023/01/01 10:35:48;;;;;;;8.63;4.63;;;;;;;10.84;79.19;98881.28;5038897;28;20102;-77
2023/01/01 10:38:22;;;;;;;8.15;4.30;;;;;;;10.85;79.21;98879.44;5032827;28;20393;-78
2023/01/01 10:40:49;;;;;;;6.80;5.00;;;;;;;10.92;79.28;98886.19;5026156;28;20056;-78
2023/01/01 10:43:15;;;;;;;8.88;4.40;;;;;;;10.97;79.07;98882.75;5025989;28;20044;-77
2023/01/01 10:45:48;;;;;;;9.57;3.90;;;;;;;10.93;79.20;98876.31;5026234;28;20025;-78
2023/01/01 10:48:23;;;;;;;8.35;4.78;;;;;;;10.89;79.43;98873.34;5032408;28;20440;-78
2023/01/01 10:50:52;;;;;;;5.90;4.05;;;;;;;10.90;79.35;98866.94;5011176;28;20060;-78
2023/01/01 10:53:39;;;;;;;9.38;4.70;;;;;;;10.87;79.10;98858.63;5031604;28;20401;-78
2023/01/01 10:56:12;;;;;;;6.15;3.90;;;;;;;10.91;78.93;98857.06;5016095;28;20037;-78
2023/01/01 10:58:55;;;;;;;10.98;5.28;;;;;;;10.87;78.91;98838.06;5032164;28;20171;-78
2023/01/01 11:01:22;;;;;;;12.35;5.53;;;;;;;10.99;79.08;98848.59;5030911;28;20111;-78
2023/01/01 11:04:03;;;;;;;8.68;4.75;;;;;;;10.94;79.16;98841.34;5032714;28;20480;-77
2023/01/01 11:06:48;;;;;;;8.80;4.55;;;;;;;11.07;78.51;98853.50;5039340;28;20033;-78
2023/01/01 11:09:30;;;;;;;5.17;3.60;;;;;;;10.98;78.68;98847.81;5023186;28;20045;-78
2023/01/01 11:12:00;;;;;;;10.55;4.82;;;;;;;11.09;78.39;98844.19;5016816;28;20094;-78
2023/01/01 11:14:36;;;;;;;7.95;3.70;;;;;;;11.12;78.54;98848.19;5033675;28;20033;-78
2023/01/01 11:17:01;;;;;;;;;;;;;;;11.15;78.44;98858.41;5027747;28;20033;-78
2023/01/01 11:19:33;;;;;;;11.97;4.47;;;;;;;11.16;78.33;98844.00;5036165;28;19920;-78
2023/01/01 11:22:00;;;;;;;6.05;3.38;;;;;;;11.23;78.25;98852.59;5034046;28;20026;-78
2023/01/01 11:24:28;;;;;;;9.23;4.40;;;;;;;11.17;78.59;98859.75;5029308;28;20041;-78
2023/01/01 11:27:21;;;;;;;9.32;4.28;;;;;;;11.19;78.40;98870.19;5029898;28;20644;-78
2023/01/01 11:29:47;;;;;;;11.38;4.53;;;;;;;11.18;78.70;98861.34;5028718;28;20033;-78
2023/01/01 11:32:35;;;;;;;7.47;4.30;;;;;;;11.20;78.62;98863.81;5034430;28;20052;-78
2023/01/01 11:35:06;;;;;;;9.98;3.80;;;;;;;11.06;79.26;98855.38;5027589;28;20037;-78
2023/01/01 11:37:40;;;;;;;9.25;5.00;;;;;;;11.17;78.79;98862.44;5039023;28;20036;-78
2023/01/01 11:40:16;;;;;;;8.13;4.60;;;;;;;11.03;78.73;98853.19;5031163;28;20144;-79
2023/01/01 11:42:47;;;;;;;8.35;3.85;;;;;;;11.14;78.70;98843.41;5037127;28;20358;-79
2023/01/01 11:45:19;;;;;;;5.55;4.15;;;;;;;11.20;78.86;98847.78;5033337;28;20304;-78
2023/01/01 11:47:51;;;;;;;9.00;3.83;;;;;;;11.12;78.73;98835.66;5043120;28;20166;-79
2023/01/01 11:50:35;;;;;;;13.50;4.10;;;;;;;11.19;78.72;98836.28;5032251;28;20127;-79
2023/01/01 11:53:17;;;;;;;6.93;3.95;;;;;;;11.22;78.07;98846.47;5035630;28;20067;-79
2023/01/01 11:55:49;;;;;;;10.82;4.45;;;;;;;11.21;78.15;98836.81;5031254;28;20028;-80
2023/01/01 11:58:26;;;;;;;6.28;4.10;;;;;;;11.19;78.51;98836.28;5036484;28;20028;-79
2023/01/01 12:01:00;;;;;;;8.45;4.13;;;;;;;11.30;78.47;98831.81;5026657;28;20025;-79
2023/01/01 12:03:55;;;;;;;7.30;3.80;;;;;;;11.32;78.41;98835.03;5027360;28;20040;-80
2023/01/01 12:06:40;;;;;;;12.25;3.65;;;;;;;11.31;78.18;98830.78;5012109;28;20408;-80
2023/01/01 12:09:28;;;;;;;7.50;3.83;;;;;;;11.23;78.50;98839.22;5023191;28;20025;-79
2023/01/01 12:12:04;;;;;;;8.40;4.07;;;;;;;11.24;78.59;98836.34;5031825;28;20426;-79